Time;durP1;ratioP1;P1;durP2;ratioP2;P2;SDS_P1;SDS_P2;PMS_P1;PMS_P2;Temp;Humidity;BMP_temperature;BMP_pressure;BME280_temperature;BME280_humidity;BME280_pressure;Samples;Min_cycle;Max_cycle;Signal;HPM_P1;HPM_P2
2023/02/11 00:00:52;;;;;;;89.72;37.22;;;;;;;-6.69;64.39;101373.28;5069797;28;20020;-75
2023/02/11 00:03:18;;;;;;;89.57;37.03;;;;;;;-6.68;64.50;101372.28;5071265;28;20036;-75
2023/02/11 00:05:43;;;;;;;87.72;37.38;;;;;;;-6.23;63.65;101373.47;5069863;28;20024;-74
2023/02/11 00:08:09;;;;;;;80.18;37.13;;;;;;;-6.21;63.20;101378.75;5070945;28;20025;-75
2023/02/11 00:10:34;;;;;;;83.55;35.88;;;;;;;-5.85;62.59;101378.19;5071139;28;20518;-75
2023/02/11 00:13:00;;;;;;;94.18;40.20;;;;;;;-5.71;61.89;101378.44;5070968;28;20021;-74
2023/02/11 00:15:25;;;;;;;83.15;39.03;;;;;;;-5.61;62.02;101383.66;5069847;28;20058;-75
2023/02/11 00:17:51;;;;;;;92.97;41.05;;;;;;;-5.50;60.98;101383.25;5071108;28;20015;-75
2023/02/11 00:20:16;;;;;;;86.43;39.33;;;;;;;-5.26;60.72;101379.50;5070964;28;20024;-75
2023/02/11 00:22:42;;;;;;;97.55;41.08;;;;;;;-5.09;60.42;101377.47;5070906;28;20073;-74
2023/02/11 00:25:08;;;;;;;78.53;36.75;;;;;;;-5.07;59.61;101377.28;5069594;28;20159;-74
2023/02/11 00:27:35;;;;;;;74.78;37.30;;;;;;;-5.05;59.70;101374.38;5069530;28;20021;-75
2023/02/11 00:30:01;;;;;;;85.30;38.58;;;;;;;-4.96;60.82;101374.09;5070924;28;20024;-74
2023/02/11 00:32:27;;;;;;;87.18;36.53;;;;;;;-4.81;60.43;101371.41;5071815;28;20024;-75
2023/02/11 00:34:54;;;;;;;79.68;36.00;;;;;;;-4.72;59.58;101361.25;5073482;28;20047;-75
2023/02/11 00:37:19;;;;;;;73.78;34.72;;;;;;;-4.63;59.31;101369.34;5073327;28;20498;-75
2023/02/11 00:39:45;;;;;;;88.38;35.38;;;;;;;-4.76;58.58;101370.84;5074726;28;20028;-75
2023/02/11 00:42:14;;;;;;;86.60;36.35;;;;;;;-4.67;59.11;101363.41;5074555;28;20043;-75
2023/02/11 00:44:39;;;;;;;82.82;38.05;;;;;;;-4.62;58.41;101355.53;5073229;28;20025;-74
2023/02/11 00:47:05;;;;;;;90.35;39.53;;;;;;;-4.75;58.94;101364.34;5074262;28;20017;-75
2023/02/11 00:49:30;;;;;;;86.28;42.42;;;;;;;-4.55;58.95;101361.06;5074352;28;20040;-75
2023/02/11 00:51:56;;;;;;;95.70;40.53;;;;;;;-4.50;59.07;101369.53;5074357;28;20063;-75
2023/02/11 00:54:21;;;;;;;88.25;41.55;;;;;;;-4.41;58.61;101368.41;5074545;28;20415;-75
2023/02/11 00:56:46;;;;;;;86.57;40.08;;;;;;;-4.30;58.78;101366.25;5074187;28;20099;-74
2023/02/11 00:59:12;;;;;;;86.50;42.95;;;;;;;-4.38;58.94;101362.56;5074227;28;20020;-74
2023/02/11 01:01:38;;;;;;;88.30;43.28;;;;;;;-4.75;58.75;101361.63;5074253;28;20020;-74
2023/02/11 01:04:04;;;;;;;83.43;40.50;;;;;;;-4.71;59.19;101357.47;5074273;28;20021;-75
2023/02/11 01:06:29;;;;;;;86.10;42.58;;;;;;;-4.79;59.24;101357.56;5074174;28;20025;-75
2023/02/11 01:08:55;;;;;;;90.05;40.95;;;;;;;-5.00;59.10;101348.22;5073950;28;20031;-73
2023/02/11 01:11:21;;;;;;;89.25;38.80;;;;;;;-4.74;59.19;101362.47;5072856;28;20119;-75
2023/02/11 01:13:48;;;;;;;87.43;40.95;;;;;;;-4.74;59.29;101368.78;5073968;28;20479;-74
2023/02/11 01:16:13;;;;;;;124.15;49.53;;;;;;;-4.86;59.27;101360.22;5072693;28;20051;-75
2023/02/11 01:18:40;;;;;;;127.22;48.83;;;;;;;-4.60;59.29;101358.03;5073789;28;20051;-75
2023/02/11 01:21:06;;;;;;;112.28;46.03;;;;;;;-4.90;59.10;101358.03;5073893;28;20027;-75
2023/02/11 01:23:32;;;;;;;136.57;53.40;;;;;;;-4.79;58.82;101346.66;5073905;28;20032;-75
2023/02/11 01:25:58;;;;;;;151.10;57.08;;;;;;;-4.91;58.41;101339.97;5073878;28;20024;-75
2023/02/11 01:28:26;;;;;;;121.97;49.90;;;;;;;-5.58;59.93;101348.69;5073536;28;20020;-75
2023/02/11 01:30:52;;;;;;;117.20;52.22;;;;;;;-5.71;61.29;101341.13;5074093;28;20024;-75
2023/02/11 01:33:18;;;;;;;111.88;51.70;;;;;;;-5.59;60.68;101332.53;5073869;28;20016;-75
2023/02/11 01:35:44;;;;;;;91.15;41.03;;;;;;;-6.04;61.88;101326.88;5073630;28;20392;-75
2023/02/11 01:38:19;;;;;;;87.05;40.15;;;;;;;-6.25;62.36;101336.53;5073443;28;20021;-76
2023/02/11 01:40:51;;;;;;;83.50;37.58;;;;;;;-6.42;63.42;101331.16;5072371;28;20115;-73
2023/02/11 01:43:17;;;;;;;76.82;36.33;;;;;;;-6.64;64.42;101319.16;5072420;28;20085;-75
2023/02/11 01:45:46;;;;;;;82.10;36.17;;;;;;;-6.68;64.02;101324.09;5072194;28;20020;-75
2023/02/11 01:48:16;;;;;;;75.63;33.85;;;;;;;-6.70;63.91;101325.28;5071811;28;20082;-75
2023/02/11 01:50:41;;;;;;;;;;;;;;;-6.81;64.39;101323.81;5073769;28;20044;-75
2023/02/11 01:58:43;;;;;;;65.20;29.13;;;;;;;-6.44;65.39;101307.88;5073198;28;20435;-76
2023/02/11 02:01:11;;;;;;;66.85;30.45;;;;;;;-6.57;64.26;101311.13;5073243;28;20055;-75
2023/02/11 02:03:41;;;;;;;63.38;28.85;;;;;;;-6.39;64.26;101300.84;5073062;28;20021;-75
2023/02/11 02:06:15;;;;;;;71.07;29.70;;;;;;;-6.53;63.97;101310.59;5073180;28;20483;-75
2023/02/11 02:08:54;;;;;;;75.38;34.22;;;;;;;-6.79;64.74;101306.28;5072853;28;20033;-75
2023/02/11 02:11:20;;;;;;;95.72;42.40;;;;;;;-6.87;64.93;101300.84;5071746;28;20048;-75
2023/02/11 02:13:45;;;;;;;117.30;44.00;;;;;;;-6.42;64.16;101300.34;5073078;28;20082;-75
2023/02/11 02:16:14;;;;;;;102.63;42.53;;;;;;;-6.23;63.36;101304.53;5072982;28;20443;-75
2023/02/11 02:18:54;;;;;;;87.68;42.60;;;;;;;-5.97;62.84;101304.16;5072808;28;20027;-75
2023/02/11 02:21:29;;;;;;;;;;;;;;;-5.79;62.61;101309.31;5072311;28;20560;-76
2023/02/11 02:24:39;;;;;;;85.75;36.13;;;;;;;-5.63;62.23;101313.78;5073087;28;19908;-75
2023/02/11 02:27:16;;;;;;;;;;;;;;;-5.50;61.80;101310.47;5011712;28;20560;-75
2023/02/11 02:30:00;;;;;;;79.13;32.25;;;;;;;-5.48;61.93;101303.97;5064706;28;19908;-75
2023/02/11 02:32:35;;;;;;;71.18;32.47;;;;;;;-5.44;61.21;101299.84;5071935;28;20388;-75
2023/02/11 02:35:28;;;;;;;64.03;31.88;;;;;;;-5.82;60.58;101312.41;5072710;28;20029;-76
2023/02/11 02:38:05;;;;;;;93.32;39.22;;;;;;;-6.55;62.69;101317.25;5071881;28;20039;-76
2023/02/11 02:40:37;;;;;;;65.25;34.22;;;;;;;-6.74;63.69;101323.94;5071260;28;20085;-76
2023/02/11 02:43:03;;;;;;;69.25;31.60;;;;;;;-7.03;65.36;101322.69;5071214;28;20107;-75
2023/02/11 02:45:29;;;;;;;79.10;33.30;;;;;;;-6.67;65.76;101323.06;5072466;28;20030;-73
2023/02/11 02:47:54;;;;;;;83.80;37.92;;;;;;;-6.54;65.29;101327.13;5072537;28;20464;-76
2023/02/11 02:50:28;;;;;;;88.72;38.03;;;;;;;-6.45;63.99;101328.78;5070929;28;20070;-76
2023/02/11 02:53:26;;;;;;;85.28;40.20;;;;;;;-7.17;64.48;101341.41;5071401;28;20020;-76
2023/02/11 02:56:27;;;;;;;87.55;39.72;;;;;;;-6.94;64.46;101327.06;5072317;28;20024;-76
2023/02/11 02:59:11;;;;;;;96.75;38.78;;;;;;;-7.01;64.77;101328.78;5070347;28;20495;-76
2023/02/11 03:01:50;;;;;;;78.65;33.55;;;;;;;-7.33;66.83;101334.09;5072181;28;20024;-75
2023/02/11 03:04:21;;;;;;;99.13;40.58;;;;;;;-7.41;66.27;101325.94;5072179;28;20056;-76
2023/02/11 03:07:08;;;;;;;99.15;38.85;;;;;;;-7.45;65.99;101319.97;5072111;28;20414;-75
2023/02/11 03:09:42;;;;;;;86.15;35.50;;;;;;;-6.83;65.63;101310.34;5072047;28;20471;-76
2023/02/11 03:12:11;;;;;;;71.85;31.35;;;;;;;-6.52;65.61;101311.44;5072364;28;20031;-76
2023/02/11 03:14:38;;;;;;;69.53;31.83;;;;;;;-6.39;63.93;101317.19;5071909;28;20029;-76
2023/02/11 03:17:06;;;;;;;85.20;36.65;;;;;;;-6.59;63.55;101322.19;5072171;28;20017;-76
2023/02/11 03:19:50;;;;;;;89.18;34.45;;;;;;;-6.54;63.69;101319.81;5070976;28;20032;-75
2023/02/11 03:22:31;;;;;;;88.88;34.63;;;;;;;-6.39;64.53;101325.38;5070817;28;20028;-74
2023/02/11 03:24:57;;;;;;;78.57;34.35;;;;;;;-6.48;63.80;101318.25;5071322;28;20340;-76
2023/02/11 03:27:34;;;;;;;82.20;34.28;;;;;;;-6.28;63.72;101318.66;5072093;28;20031;-76
2023/02/11 03:29:59;;;;;;;94.68;42.25;;;;;;;-6.85;64.24;101319.75;5072245;28;20024;-75
2023/02/11 03:32:29;;;;;;;110.18;42.58;;;;;;;-6.84;64.25;101313.28;5071876;28;20050;-73
2023/02/11 03:34:57;;;;;;;125.13;50.42;;;;;;;-7.06;64.84;101319.28;5070974;28;20557;-76
2023/02/11 03:37:26;;;;;;;95.43;41.08;;;;;;;-7.26;65.21;101326.94;5071925;28;20453;-76
2023/02/11 03:39:58;;;;;;;74.05;29.85;;;;;;;-7.45;65.94;101336.28;5070541;28;20044;-77
2023/02/11 03:42:28;;;;;;;68.25;31.25;;;;;;;-7.96;67.56;101341.88;5071080;28;20020;-75
2023/02/11 03:45:03;;;;;;;79.72;31.90;;;;;;;-7.98;67.19;101330.28;5072215;28;20029;-76
2023/02/11 03:47:31;;;;;;;77.93;31.33;;;;;;;-7.67;67.24;101335.94;5077924;28;20391;-75
2023/02/11 03:49:58;;;;;;;75.57;30.77;;;;;;;-7.56;67.01;101332.06;5091838;28;20052;-76
2023/02/11 03:52:25;;;;;;;76.07;32.15;;;;;;;-7.35;67.01;101330.69;5092401;28;20445;-77
2023/02/11 03:54:54;;;;;;;74.68;33.17;;;;;;;-7.31;65.45;101326.63;5092016;28;20526;-74
2023/02/11 03:57:20;;;;;;;80.85;34.65;;;;;;;-7.47;66.05;101335.63;5092151;28;20020;-77
2023/02/11 03:59:53;;;;;;;79.13;36.75;;;;;;;-7.83;67.03;101336.78;5092012;28;20035;-76
2023/02/11 04:02:19;;;;;;;84.70;36.97;;;;;;;-8.30;67.87;101338.19;5090949;28;20487;-75
2023/02/11 04:04:45;;;;;;;95.30;38.55;;;;;;;-8.54;68.85;101338.97;5092196;28;20059;-78
2023/02/11 04:07:11;;;;;;;90.78;37.88;;;;;;;-8.53;69.47;101346.94;5094137;28;20028;-76
2023/02/11 04:09:37;;;;;;;87.10;35.45;;;;;;;-8.23;68.59;101346.53;5096043;28;20413;-77
2023/02/11 04:12:02;;;;;;;78.68;36.42;;;;;;;-7.91;68.77;101345.75;5095962;28;20452;-76
2023/02/11 04:14:28;;;;;;;84.82;33.75;;;;;;;-7.82;68.45;101351.22;5095944;28;20031;-76
2023/02/11 04:16:53;;;;;;;70.35;30.80;;;;;;;-7.90;67.91;101346.63;5096119;28;20085;-76
2023/02/11 04:19:19;;;;;;;83.75;33.58;;;;;;;-7.74;66.21;101340.38;5095875;28;20407;-76
2023/02/11 04:21:44;;;;;;;87.72;37.88;;;;;;;-7.87;67.25;101340.84;5095779;28;20024;-77
2023/02/11 04:24:09;;;;;;;78.50;32.17;;;;;;;-7.96;69.08;101344.59;5094669;28;20134;-77
2023/02/11 04:26:35;;;;;;;87.90;35.05;;;;;;;-7.70;68.44;101341.72;5094408;28;20028;-76
2023/02/11 04:29:00;;;;;;;115.13;45.75;;;;;;;-7.62;67.48;101343.59;5096160;28;20031;-77
2023/02/11 04:31:26;;;;;;;127.40;46.63;;;;;;;-7.52;66.75;101327.13;5095569;28;20548;-76
2023/02/11 04:33:51;;;;;;;98.70;38.78;;;;;;;-7.40;66.27;101327.63;5095383;28;20406;-76
2023/02/11 04:36:17;;;;;;;82.03;35.42;;;;;;;-7.50;66.52;101331.34;5094299;28;20047;-77
2023/02/11 04:38:42;;;;;;;92.85;33.80;;;;;;;-7.34;65.92;101333.22;5094093;28;20020;-77
2023/02/11 04:41:08;;;;;;;83.32;36.08;;;;;;;-7.41;65.89;101331.38;5093972;28;20434;-76
2023/02/11 04:43:33;;;;;;;122.53;45.78;;;;;;;-7.53;66.05;101326.28;5095348;28;20024;-76
2023/02/11 04:45:58;;;;;;;117.57;46.00;;;;;;;-7.43;66.78;101325.25;5095019;28;20027;-75
2023/02/11 04:48:24;;;;;;;136.77;50.75;;;;;;;-7.65;65.16;101320.34;5093736;28;20513;-77
2023/02/11 04:50:50;;;;;;;107.65;42.65;;;;;;;-7.79;66.65;101321.84;5094709;28;20071;-77
2023/02/11 04:53:16;;;;;;;103.30;43.22;;;;;;;-7.69;66.38;101313.50;5093604;28;20522;-76
2023/02/11 04:55:41;;;;;;;119.38;44.65;;;;;;;-7.49;66.90;101324.06;5093569;28;20028;-77
2023/02/11 04:58:07;;;;;;;96.30;41.08;;;;;;;-7.31;66.14;101323.91;5095129;28;20028;-77
2023/02/11 05:00:32;;;;;;;119.63;46.20;;;;;;;-7.23;65.52;101310.28;5094617;28;20485;-77
2023/02/11 05:02:57;;;;;;;108.05;45.45;;;;;;;-7.01;65.21;101315.19;5094749;28;20042;-76
2023/02/11 05:05:23;;;;;;;92.07;40.58;;;;;;;-6.91;64.62;101316.69;5093288;28;20114;-76
2023/02/11 05:07:48;;;;;;;96.82;40.97;;;;;;;-6.94;64.98;101322.47;5093225;28;20032;-76
2023/02/11 05:10:14;;;;;;;114.45;47.10;;;;;;;-7.08;65.38;101320.47;5094545;28;20081;-76
2023/02/11 05:12:39;;;;;;;107.75;45.38;;;;;;;-7.97;65.61;101326.56;5094369;28;20111;-76
2023/02/11 05:15:05;;;;;;;80.32;39.85;;;;;;;-7.83;67.61;101322.34;5093175;28;20416;-76
2023/02/11 05:17:31;;;;;;;87.72;39.10;;;;;;;-7.33;66.96;101321.34;5094388;28;20098;-76
2023/02/11 05:19:56;;;;;;;115.47;44.80;;;;;;;-7.86;66.53;101325.41;5094505;28;20024;-77
2023/02/11 05:22:21;;;;;;;129.15;49.25;;;;;;;-7.80;66.84;101328.28;5094073;28;20402;-77
2023/02/11 05:24:48;;;;;;;119.68;47.42;;;;;;;-7.77;66.69;101325.25;5094312;28;20058;-77
2023/02/11 05:27:13;;;;;;;96.63;41.17;;;;;;;-7.88;66.05;101316.56;5094163;28;20086;-77
2023/02/11 05:29:38;;;;;;;89.07;38.05;;;;;;;-8.37;68.26;101321.69;5094261;28;20490;-77
2023/02/11 05:32:04;;;;;;;86.57;38.55;;;;;;;-7.90;67.80;101322.16;5093970;28;20085;-77
2023/02/11 05:34:29;;;;;;;95.40;39.83;;;;;;;-7.66;68.30;101329.50;5092828;28;20028;-76
2023/02/11 05:36:55;;;;;;;117.65;45.50;;;;;;;-7.62;68.02;101319.13;5094083;28;20447;-76
2023/02/11 05:39:20;;;;;;;94.50;40.28;;;;;;;-7.89;67.86;101310.28;5092712;28;20134;-77
2023/02/11 05:41:46;;;;;;;81.07;36.85;;;;;;;-8.16;68.26;101314.97;5091139;28;20054;-77
2023/02/11 05:44:11;;;;;;;77.93;36.10;;;;;;;-8.21;69.11;101314.63;5093942;28;20027;-76
2023/02/11 05:46:37;;;;;;;85.97;40.28;;;;;;;-8.22;69.41;101332.78;5092427;28;20031;-77
2023/02/11 05:49:02;;;;;;;97.40;43.55;;;;;;;-7.73;68.45;101322.16;5093583;28;20123;-78
2023/02/11 05:51:28;;;;;;;103.50;45.85;;;;;;;-7.77;68.31;101319.81;5092293;28;20024;-77
2023/02/11 05:53:53;;;;;;;118.18;48.30;;;;;;;-7.47;67.81;101322.03;5093644;28;20032;-77
2023/02/11 05:56:18;;;;;;;119.22;51.33;;;;;;;-7.31;67.42;101321.16;5093786;28;20024;-75
2023/02/11 05:58:44;;;;;;;133.18;54.83;;;;;;;-7.07;67.54;101314.00;5093606;28;20024;-78
2023/02/11 06:01:09;;;;;;;144.60;66.38;;;;;;;-6.78;66.21;101324.31;5093297;28;20028;-74
2023/02/11 06:03:35;;;;;;;97.50;48.92;;;;;;;-6.82;66.22;101333.00;5093386;28;20028;-75
2023/02/11 06:06:00;;;;;;;95.00;43.03;;;;;;;-6.71;65.56;101329.91;5093564;28;20111;-74
2023/02/11 06:08:26;;;;;;;103.25;45.55;;;;;;;-6.91;66.05;101327.56;5092079;28;20505;-79
2023/02/11 06:10:51;;;;;;;103.43;48.85;;;;;;;-6.96;66.65;101327.25;5094382;28;20024;-78
2023/02/11 06:13:18;;;;;;;94.55;48.13;;;;;;;-7.22;67.50;101327.44;5097838;28;20031;-77
2023/02/11 06:15:44;;;;;;;95.40;45.13;;;;;;;-7.10;67.76;101325.25;5096642;28;20089;-78
2023/02/11 06:18:09;;;;;;;86.53;42.47;;;;;;;-7.07;67.50;101333.88;5097934;28;20024;-77
2023/02/11 06:20:36;;;;;;;84.32;40.63;;;;;;;-6.95;67.37;101317.19;5093547;28;20032;-74
2023/02/11 06:23:01;;;;;;;87.90;39.53;;;;;;;-6.77;66.35;101325.16;5090981;28;20020;-75
2023/02/11 06:25:27;;;;;;;93.68;40.33;;;;;;;-6.83;66.72;101320.41;5090853;28;20031;-73
2023/02/11 06:27:52;;;;;;;92.22;39.80;;;;;;;-6.85;66.28;101325.19;5090971;28;20028;-73
2023/02/11 06:30:18;;;;;;;88.75;42.20;;;;;;;-7.09;67.81;101326.94;5091446;28;20094;-73
2023/02/11 06:32:43;;;;;;;118.72;57.15;;;;;;;-7.25;69.32;101328.63;5092794;28;20027;-73
2023/02/11 06:35:09;;;;;;;102.57;44.90;;;;;;;-7.19;70.59;101327.97;5092807;28;20031;-73
2023/02/11 06:37:34;;;;;;;81.40;38.78;;;;;;;-7.05;70.70;101320.13;5092789;28;20069;-73
2023/02/11 06:39:59;;;;;;;104.63;50.20;;;;;;;-6.54;70.37;101338.00;5091437;28;20399;-73
2023/02/11 06:42:25;;;;;;;107.65;51.00;;;;;;;-6.06;69.07;101327.06;5089872;28;20093;-73
2023/02/11 06:44:50;;;;;;;82.50;40.72;;;;;;;-5.89;67.92;101324.22;5090442;28;20028;-72
2023/02/11 06:47:16;;;;;;;89.28;42.42;;;;;;;-5.62;68.00;101325.56;5090227;28;20032;-73
2023/02/11 06:49:41;;;;;;;88.38;44.80;;;;;;;-5.59;68.31;101325.19;5088861;28;20055;-73
2023/02/11 06:52:07;;;;;;;85.32;39.88;;;;;;;-5.38;68.69;101324.50;5090260;28;20035;-72
2023/02/11 06:54:32;;;;;;;112.53;46.85;;;;;;;-5.30;68.30;101320.00;5090416;28;20107;-73
2023/02/11 06:56:58;;;;;;;73.68;35.28;;;;;;;-5.03;66.94;101310.38;5091014;28;20481;-73
2023/02/11 06:59:23;;;;;;;78.25;37.90;;;;;;;-4.54;65.63;101319.06;5092225;28;20409;-73
2023/02/11 07:01:49;;;;;;;76.20;39.25;;;;;;;-4.43;65.09;101318.59;5091294;28;20046;-73
2023/02/11 07:04:14;;;;;;;67.30;35.83;;;;;;;-4.18;64.57;101310.06;5092244;28;20024;-73
2023/02/11 07:06:40;;;;;;;59.78;30.23;;;;;;;-3.69;62.43;101305.75;5092222;28;20035;-73
2023/02/11 07:09:06;;;;;;;68.05;29.88;;;;;;;-3.60;62.31;101305.63;5091853;28;20055;-73
2023/02/11 07:11:32;;;;;;;72.43;34.42;;;;;;;-3.22;61.36;101305.31;5092098;28;20039;-73
2023/02/11 07:14:09;;;;;;;62.25;28.17;;;;;;;-3.02;60.03;101302.75;5092034;28;20027;-73
2023/02/11 07:16:37;;;;;;;66.10;28.23;;;;;;;-3.28;60.57;101304.22;5092131;28;20089;-73
2023/02/11 07:19:02;;;;;;;54.05;26.92;;;;;;;-3.11;59.93;101303.97;5091907;28;20026;-72
2023/02/11 07:21:28;;;;;;;64.80;31.95;;;;;;;-3.29;60.27;101297.06;5091960;28;20020;-72
2023/02/11 07:23:53;;;;;;;67.82;33.28;;;;;;;-2.90;59.83;101296.72;5091690;28;20421;-72
2023/02/11 07:26:22;;;;;;;63.15;29.75;;;;;;;-2.54;58.10;101295.66;5090507;28;20093;-72
2023/02/11 07:28:48;;;;;;;58.65;26.08;;;;;;;-2.58;57.30;101294.38;5091721;28;20501;-73
2023/02/11 07:31:26;;;;;;;51.17;27.20;;;;;;;-2.52;56.77;101293.59;5090441;28;20413;-73
2023/02/11 07:33:54;;;;;;;48.05;23.77;;;;;;;-2.74;57.48;101299.16;5091698;28;20077;-72
2023/02/11 07:36:20;;;;;;;49.05;24.10;;;;;;;-2.81;57.11;101290.03;5090372;28;20118;-73
2023/02/11 07:38:46;;;;;;;52.03;26.80;;;;;;;-2.35;56.70;101290.50;5091612;28;20020;-73
2023/02/11 07:41:15;;;;;;;58.90;26.40;;;;;;;-2.12;55.42;101292.88;5089456;28;20038;-73
2023/02/11 07:43:41;;;;;;;49.60;26.35;;;;;;;-1.90;55.38;101293.59;5090523;28;20555;-72
2023/02/11 07:46:11;;;;;;;53.45;24.40;;;;;;;-1.86;55.38;101286.66;5091558;28;20114;-72
2023/02/11 07:48:37;;;;;;;62.03;28.35;;;;;;;-1.57;54.56;101273.63;5091184;28;20448;-73
2023/02/11 07:51:16;;;;;;;51.45;24.83;;;;;;;-2.01;55.41;101285.97;5090244;28;20048;-74
2023/02/11 07:53:43;;;;;;;60.15;26.95;;;;;;;-1.98;56.36;101282.81;5091299;28;20520;-75
2023/02/11 07:56:10;;;;;;;49.47;25.48;;;;;;;-1.50;55.79;101278.25;5091413;28;20016;-75
2023/02/11 07:58:36;;;;;;;55.00;27.20;;;;;;;-1.16;54.31;101281.84;5090261;28;20044;-77
2023/02/11 08:01:08;;;;;;;74.60;38.47;;;;;;;-0.71;52.93;101281.16;5090159;28;20063;-75
2023/02/11 08:03:35;;;;;;;40.60;21.00;;;;;;;-1.40;53.58;101278.69;5091300;28;20024;-75
2023/02/11 08:06:08;;;;;;;45.88;22.30;;;;;;;-1.32;55.07;101281.22;5091296;28;20102;-75
2023/02/11 08:08:34;;;;;;;60.60;33.53;;;;;;;-1.02;54.05;101278.03;5091195;28;20024;-75
2023/02/11 08:11:16;;;;;;;45.17;21.92;;;;;;;-0.72;51.96;101279.44;5091287;28;20030;-74
2023/02/11 08:13:42;;;;;;;43.95;21.95;;;;;;;-0.72;52.51;101277.56;5091072;28;20099;-75
2023/02/11 08:16:08;;;;;;;50.72;24.63;;;;;;;-1.16;52.32;101268.13;5091272;28;20111;-75
2023/02/11 08:18:34;;;;;;;48.25;22.85;;;;;;;-0.68;52.56;101271.63;5091141;28;20052;-74
2023/02/11 08:21:05;;;;;;;42.75;20.38;;;;;;;-0.51;51.60;101266.50;5091212;28;20046;-75
2023/02/11 08:23:30;;;;;;;51.47;23.42;;;;;;;-0.36;51.71;101257.97;5089698;28;20020;-75
2023/02/11 08:26:03;;;;;;;43.15;21.90;;;;;;;-0.10;50.43;101256.19;5089815;28;20031;-74
2023/02/11 08:28:28;;;;;;;47.20;23.80;;;;;;;-0.10;50.80;101257.00;5091673;28;20035;-72
2023/02/11 08:30:54;;;;;;;48.13;23.50;;;;;;;0.06;50.27;101250.16;5091161;28;20028;-72
2023/02/11 08:33:19;;;;;;;48.53;21.02;;;;;;;0.13;48.91;101248.22;5090998;28;20016;-72
2023/02/11 08:35:45;;;;;;;35.22;20.90;;;;;;;-0.12;48.65;101244.53;5091203;28;20509;-72
2023/02/11 08:38:10;;;;;;;44.03;22.00;;;;;;;-0.21;49.96;101247.56;5091018;28;20016;-72
2023/02/11 08:40:36;;;;;;;43.40;23.17;;;;;;;-0.17;50.52;101245.22;5091090;28;20032;-73
2023/02/11 08:43:01;;;;;;;41.35;21.65;;;;;;;-0.19;51.12;101239.91;5091058;28;20039;-72
2023/02/11 08:45:27;;;;;;;44.47;22.88;;;;;;;0.22;50.51;101239.66;5090991;28;20057;-72
2023/02/11 08:47:52;;;;;;;42.47;21.92;;;;;;;0.27;50.20;101242.59;5090814;28;20450;-71
2023/02/11 08:50:18;;;;;;;45.30;22.60;;;;;;;0.31;49.65;101235.59;5090741;28;20059;-72
2023/02/11 08:52:43;;;;;;;44.38;21.88;;;;;;;0.22;49.36;101240.53;5090762;28;20386;-72
2023/02/11 08:55:09;;;;;;;43.00;22.35;;;;;;;0.49;49.67;101229.31;5094710;28;20073;-72
2023/02/11 08:57:34;;;;;;;44.53;22.88;;;;;;;0.86;48.81;101228.56;5094660;28;20056;-72
2023/02/11 09:00:00;;;;;;;39.63;18.80;;;;;;;1.02;46.58;101226.28;5093296;28;20020;-72
2023/02/11 09:02:25;;;;;;;32.05;17.25;;;;;;;1.02;45.40;101231.78;5093363;28;20019;-71
2023/02/11 09:04:51;;;;;;;43.08;20.35;;;;;;;1.20;45.60;101226.28;5094494;28;20039;-72
2023/02/11 09:07:17;;;;;;;36.30;19.90;;;;;;;1.32;45.73;101223.63;5094464;28;20455;-71
2023/02/11 09:09:42;;;;;;;31.52;15.90;;;;;;;1.32;44.72;101220.00;5094678;28;20077;-71
2023/02/11 09:12:08;;;;;;;42.85;18.73;;;;;;;0.78;44.77;101215.91;5093204;28;20052;-71
2023/02/11 09:14:33;;;;;;;31.48;16.95;;;;;;;1.32;44.93;101212.59;5093070;28;20020;-71
2023/02/11 09:16:58;;;;;;;33.33;17.38;;;;;;;1.67;43.61;101217.47;5094455;28;20050;-72
2023/02/11 09:19:24;;;;;;;31.27;15.93;;;;;;;1.57;43.87;101217.16;5094470;28;20024;-71
2023/02/11 09:21:49;;;;;;;39.58;20.08;;;;;;;1.81;42.94;101218.13;5093354;28;20428;-72
2023/02/11 09:24:15;;;;;;;30.55;16.60;;;;;;;1.77;42.15;101213.31;5094226;28;20016;-72
2023/02/11 09:26:42;;;;;;;34.92;17.25;;;;;;;1.85;42.98;101203.84;5094201;28;20138;-72
2023/02/11 09:29:07;;;;;;;35.65;19.25;;;;;;;1.96;41.65;101201.13;5092711;28;20462;-72
2023/02/11 09:31:33;;;;;;;32.00;16.67;;;;;;;2.20;41.60;101197.59;5094165;28;20129;-72
2023/02/11 09:34:03;;;;;;;44.20;19.42;;;;;;;2.34;40.98;101193.56;5092738;28;20508;-71
2023/02/11 09:36:36;;;;;;;32.33;16.20;;;;;;;2.42;40.61;101191.53;5092767;28;20028;-72
2023/02/11 09:39:03;;;;;;;32.90;17.48;;;;;;;2.42;40.61;101189.59;5092576;28;20020;-71
2023/02/11 09:41:48;;;;;;;29.50;17.23;;;;;;;2.03;40.30;101191.91;5092587;28;20023;-72
2023/02/11 09:44:27;;;;;;;33.45;18.70;;;;;;;2.06;41.10;101188.69;5093673;28;20020;-71
2023/02/11 09:47:01;;;;;;;31.08;17.65;;;;;;;2.71;40.57;101178.66;5093894;28;20371;-72
2023/02/11 09:49:39;;;;;;;29.92;16.95;;;;;;;2.37;39.29;101170.97;5092224;28;20056;-71
2023/02/11 09:52:20;;;;;;;26.50;16.38;;;;;;;2.60;38.56;101166.53;5093837;28;20489;-72
2023/02/11 09:54:57;;;;;;;38.22;19.33;;;;;;;3.04;39.00;101159.78;5092336;28;20478;-71
2023/02/11 09:57:28;;;;;;;220.68;98.53;;;;;;;3.26;38.69;101148.06;5092272;28;20024;-72
2023/02/11 09:59:55;;;;;;;44.88;22.38;;;;;;;3.58;37.90;101144.84;5093451;28;20048;-72
2023/02/11 10:02:43;;;;;;;40.53;20.20;;;;;;;3.73;37.47;101136.81;5093539;28;20024;-72
2023/02/11 10:05:24;;;;;;;35.75;18.40;;;;;;;3.86;36.75;101134.81;5091211;28;20027;-72
2023/02/11 10:08:32;;;;;;;27.95;17.52;;;;;;;3.65;36.39;101126.16;5093317;28;20078;-72
2023/02/11 10:11:07;;;;;;;131.43;59.70;;;;;;;4.27;36.28;101118.94;5093219;28;20563;-72
2023/02/11 10:13:54;;;;;;;182.40;89.45;;;;;;;4.38;35.12;101110.78;5092115;28;20038;-72
2023/02/11 10:16:58;;;;;;;36.17;19.50;;;;;;;3.65;35.38;101102.09;5082323;28;20116;-72
2023/02/11 10:19:41;;;;;;;31.48;15.88;;;;;;;4.26;34.84;101097.88;5041678;28;20116;-72
2023/02/11 10:22:27;;;;;;;99.05;42.53;;;;;;;4.12;34.50;101091.81;5072944;28;20036;-72
2023/02/11 10:24:58;;;;;;;70.63;33.00;;;;;;;4.40;33.67;101087.25;5072774;28;20028;-72
2023/02/11 10:27:32;;;;;;;26.23;14.75;;;;;;;4.00;33.19;101080.84;5072010;28;20549;-72
2023/02/11 10:30:10;;;;;;;27.27;15.80;;;;;;;4.39;33.43;101073.66;5072669;28;20046;-72
2023/02/11 10:33:16;;;;;;;33.53;17.77;;;;;;;4.19;34.27;101070.34;5071448;28;20123;-72
2023/02/11 10:35:42;;;;;;;30.65;17.45;;;;;;;4.15;34.20;101057.25;5072568;28;20115;-72
2023/02/11 10:38:10;;;;;;;92.55;39.40;;;;;;;4.48;33.97;101053.56;5071775;28;20052;-72
2023/02/11 10:40:36;;;;;;;28.70;15.98;;;;;;;4.56;33.08;101049.53;5071161;28;20044;-72
2023/02/11 10:43:09;;;;;;;78.75;33.25;;;;;;;4.88;32.17;101040.53;5072543;28;20031;-72
2023/02/11 10:45:40;;;;;;;55.30;26.45;;;;;;;4.95;32.24;101040.31;5087965;28;20161;-72
2023/02/11 10:48:45;;;;;;;28.00;16.05;;;;;;;4.08;32.20;101040.81;5072324;28;20046;-72
2023/02/11 10:51:27;;;;;;;32.75;17.02;;;;;;;3.99;33.36;101023.78;5072235;28;20036;-72
2023/02/11 10:54:08;;;;;;;25.75;14.85;;;;;;;4.26;33.19;101019.44;5072254;28;20029;-72
2023/02/11 10:56:44;;;;;;;31.98;16.42;;;;;;;4.50;32.82;101001.50;5072028;28;20509;-72
2023/02/11 10:59:31;;;;;;;28.17;16.08;;;;;;;4.23;32.66;101001.44;5072245;28;20013;-72
2023/02/11 11:02:00;;;;;;;29.63;15.43;;;;;;;4.55;32.21;100988.81;5071988;28;20029;-72
2023/02/11 11:04:29;;;;;;;30.05;16.17;;;;;;;4.45;33.09;100978.44;5074565;28;20196;-72
2023/02/11 11:07:09;;;;;;;30.77;15.90;;;;;;;4.62;33.05;100984.75;5092479;28;20063;-72
2023/02/11 11:09:47;;;;;;;27.02;14.68;;;;;;;5.16;32.03;100968.44;5087258;28;20107;-72
2023/02/11 11:12:44;;;;;;;22.13;12.95;;;;;;;4.30;31.61;100974.38;5091695;28;20518;-72
2023/02/11 11:15:10;;;;;;;24.40;14.38;;;;;;;4.56;32.28;100966.38;5081359;28;20030;-72
2023/02/11 11:17:36;;;;;;;27.17;15.38;;;;;;;4.95;32.16;100967.38;5086641;28;20028;-72
2023/02/11 11:20:26;;;;;;;26.45;14.43;;;;;;;5.07;31.24;100951.44;5092646;28;20112;-72
2023/02/11 11:23:09;;;;;;;27.55;13.95;;;;;;;5.72;31.41;100936.72;5083450;28;20023;-72
2023/02/11 11:25:38;;;;;;;26.58;13.73;;;;;;;5.83;30.14;100943.19;5087727;28;20036;-72
2023/02/11 11:28:04;;;;;;;24.58;13.13;;;;;;;5.81;29.52;100934.31;5104982;28;20110;-72